Time;durP1;ratioP1;P1;durP2;ratioP2;P2;SDS_P1;SDS_P2;PMS_P1;PMS_P2;Temp;Humidity;BMP_temperature;BMP_pressure;BME280_temperature;BME280_humidity;BME280_pressure;Samples;Min_cycle;Max_cycle;Signal;HPM_P1;HPM_P2
2023/07/20 00:00:40;;;;;;;5.80;2.40;;;20.70;48.10;;;;;;5024978;28;20461;-73
2023/07/20 00:03:26;;;;;;;3.27;1.80;;;20.70;48.40;;;;;;5035062;28;20457;-73
2023/07/20 00:06:12;;;;;;;4.97;2.57;;;20.80;48.40;;;;;;5029408;28;20435;-73
2023/07/20 00:08:58;;;;;;;5.53;2.13;;;20.80;48.40;;;;;;5021095;28;20445;-73
2023/07/20 00:11:50;;;;;;;7.30;2.60;;;20.80;48.00;;;;;;5028787;28;20454;-73
2023/07/20 00:14:35;;;;;;;12.63;2.17;;;20.90;48.10;;;;;;5022224;28;20523;-73
2023/07/20 00:17:21;;;;;;;4.93;2.10;;;20.90;47.80;;;;;;5024390;28;21018;-73
2023/07/20 00:20:08;;;;;;;5.77;2.13;;;20.80;49.30;;;;;;5022409;28;20588;-73
2023/07/20 00:22:57;;;;;;;5.67;2.43;;;20.80;48.10;;;;;;5023992;28;20452;-72
2023/07/20 00:25:42;;;;;;;2.70;1.90;;;20.80;49.20;;;;;;5015594;28;20454;-73
2023/07/20 00:28:28;;;;;;;5.30;2.30;;;20.80;49.20;;;;;;5023846;28;20439;-72
2023/07/20 00:31:13;;;;;;;5.67;1.90;;;20.80;51.20;;;;;;5024120;28;20451;-73
2023/07/20 00:33:59;;;;;;;6.53;2.50;;;20.80;50.40;;;;;;5020554;28;20445;-73
2023/07/20 00:36:45;;;;;;;4.20;1.77;;;20.70;50.00;;;;;;5020511;28;20477;-73
2023/07/20 00:39:31;;;;;;;5.67;2.00;;;20.80;50.00;;;;;;5024841;28;20424;-73
2023/07/20 00:42:17;;;;;;;7.13;2.73;;;20.80;48.80;;;;;;5026138;28;20512;-73
2023/07/20 00:45:03;;;;;;;7.00;2.53;;;20.80;49.80;;;;;;5026458;28;20448;-73
2023/07/20 00:47:48;;;;;;;6.80;2.30;;;20.70;48.60;;;;;;5027581;28;21212;-73
2023/07/20 00:50:35;;;;;;;5.40;2.00;;;20.60;49.20;;;;;;5025366;28;20965;-73
2023/07/20 00:53:20;;;;;;;8.23;2.37;;;20.60;50.40;;;;;;5022637;28;20453;-73
2023/07/20 00:56:08;;;;;;;4.90;2.60;;;20.50;49.30;;;;;;5019993;28;20505;-72
2023/07/20 00:58:53;;;;;;;4.87;2.30;;;20.50;49.80;;;;;;5021351;28;20440;-73
2023/07/20 01:01:38;;;;;;;5.60;2.43;;;20.40;50.80;;;;;;5021131;28;20535;-73
2023/07/20 01:04:26;;;;;;;5.93;2.30;;;20.30;51.80;;;;;;5025943;28;20490;-73
2023/07/20 01:07:15;;;;;;;6.93;2.47;;;20.30;52.50;;;;;;5022871;28;20452;-73
2023/07/20 01:10:06;;;;;;;6.40;2.57;;;20.30;53.60;;;;;;5029254;28;20467;-74
2023/07/20 01:12:54;;;;;;;5.43;1.90;;;20.30;53.60;;;;;;5023830;28;20958;-73
2023/07/20 01:15:40;;;;;;;4.83;2.07;;;20.30;53.60;;;;;;5027717;28;20469;-73
2023/07/20 01:18:25;;;;;;;4.53;1.90;;;20.40;55.70;;;;;;5021264;28;20965;-73
2023/07/20 01:21:25;;;;;;;6.83;2.30;;;20.30;55.90;;;;;;5031942;28;20506;-74
2023/07/20 01:24:43;;;;;;;6.00;2.70;;;20.20;56.50;;;;;;5020388;28;20517;-74
2023/07/20 01:28:23;;;;;;;5.13;2.23;;;20.10;59.10;;;;;;5024985;28;20652;-73
2023/07/20 01:31:22;;;;;;;6.80;2.70;;;20.10;59.40;;;;;;4936739;29;20535;-73
2023/07/20 01:34:10;;;;;;;12.80;2.37;;;20.00;60.90;;;;;;4939575;29;20870;-74
2023/07/20 01:36:56;;;;;;;4.47;2.30;;;19.90;61.70;;;;;;5021723;28;20586;-73
2023/07/20 01:39:42;;;;;;;5.73;2.20;;;19.80;62.50;;;;;;5020519;28;20511;-73
2023/07/20 01:42:27;;;;;;;5.03;2.80;;;19.70;64.30;;;;;;5024317;28;20445;-73
2023/07/20 01:45:13;;;;;;;3.77;2.20;;;19.60;64.60;;;;;;5018371;28;20975;-73
2023/07/20 01:48:00;;;;;;;5.43;2.10;;;19.40;65.00;;;;;;5030457;28;21014;-74
2023/07/20 01:50:46;;;;;;;5.40;2.73;;;19.30;66.70;;;;;;5023112;28;20436;-73
2023/07/20 01:53:31;;;;;;;8.33;2.40;;;19.10;68.10;;;;;;5029119;28;20960;-74
2023/07/20 01:56:17;;;;;;;4.50;2.17;;;19.00;69.70;;;;;;5021921;28;20810;-73
2023/07/20 01:59:02;;;;;;;4.53;2.50;;;18.90;71.00;;;;;;5022639;28;20456;-73
2023/07/20 02:01:48;;;;;;;5.97;2.50;;;18.70;71.80;;;;;;5028393;28;20904;-73
2023/07/20 02:04:35;;;;;;;4.57;2.70;;;18.70;73.10;;;;;;5037719;28;20568;-73
2023/07/20 02:07:21;;;;;;;4.73;2.80;;;18.60;73.50;;;;;;5032377;28;20515;-74
2023/07/20 02:10:07;;;;;;;5.47;2.43;;;18.60;74.20;;;;;;5023852;28;20529;-73
2023/07/20 02:12:53;;;;;;;4.83;2.60;;;18.50;74.80;;;;;;5019473;28;20525;-74
2023/07/20 02:15:38;;;;;;;9.40;3.53;;;18.40;76.40;;;;;;5023215;28;20445;-72
2023/07/20 02:18:24;;;;;;;7.80;2.83;;;18.30;77.10;;;;;;5033076;28;20453;-72
2023/07/20 02:21:11;;;;;;;6.07;2.43;;;18.20;78.10;;;;;;5025338;28;20560;-72
2023/07/20 02:23:56;;;;;;;4.10;2.70;;;18.10;78.90;;;;;;5029738;28;20449;-72
2023/07/20 02:26:42;;;;;;;7.43;2.53;;;18.00;80.50;;;;;;5033695;28;20827;-72
2023/07/20 02:29:27;;;;;;;4.33;2.40;;;17.90;83.00;;;;;;5027929;28;20441;-74
2023/07/20 02:32:13;;;;;;;4.60;2.40;;;17.80;83.20;;;;;;5024722;28;21142;-72
2023/07/20 02:34:58;;;;;;;4.77;2.70;;;17.70;85.90;;;;;;5021187;28;20471;-72
2023/07/20 02:37:45;;;;;;;5.43;3.27;;;17.60;87.80;;;;;;5024723;28;20622;-72
2023/07/20 02:40:30;;;;;;;8.67;2.80;;;17.60;87.20;;;;;;5023298;28;20808;-72
2023/07/20 02:43:16;;;;;;;7.50;3.00;;;17.50;89.80;;;;;;5021110;28;20445;-72
2023/07/20 02:46:01;;;;;;;5.00;2.40;;;17.40;91.10;;;;;;5025798;28;20941;-72
2023/07/20 02:48:47;;;;;;;10.53;3.47;;;17.40;91.10;;;;;;5024280;28;20480;-72
2023/07/20 02:51:33;;;;;;;5.37;2.30;;;17.40;91.50;;;;;;5020862;28;20589;-72
2023/07/20 02:54:20;;;;;;;3.20;2.50;;;17.50;91.30;;;;;;5022457;28;20424;-72
2023/07/20 02:57:05;;;;;;;4.27;2.50;;;17.60;91.40;;;;;;5019936;28;20806;-72
2023/07/20 02:59:51;;;;;;;4.20;2.63;;;17.60;91.00;;;;;;5021400;28;20932;-72
2023/07/20 03:02:36;;;;;;;8.60;2.37;;;17.60;91.10;;;;;;5023639;28;20452;-72
2023/07/20 03:05:25;;;;;;;10.63;2.90;;;17.50;90.70;;;;;;5024197;28;20441;-72
2023/07/20 03:08:10;;;;;;;5.53;2.47;;;17.30;91.20;;;;;;5029228;28;20451;-72
2023/07/20 03:10:57;;;;;;;4.10;2.53;;;17.20;92.00;;;;;;5024665;28;20487;-72
2023/07/20 03:13:43;;;;;;;4.83;2.63;;;17.20;92.20;;;;;;5025372;28;20449;-73
2023/07/20 03:16:28;;;;;;;4.07;2.40;;;17.10;92.10;;;;;;5025166;28;20460;-72
2023/07/20 03:19:13;;;;;;;9.20;2.43;;;17.10;92.20;;;;;;5026942;28;20411;-72
2023/07/20 03:21:59;;;;;;;3.30;2.10;;;17.10;92.20;;;;;;5026184;28;20503;-72
2023/07/20 03:24:45;;;;;;;3.43;2.57;;;16.90;93.00;;;;;;5023260;28;20428;-72
2023/07/20 03:27:31;;;;;;;7.43;2.97;;;16.80;94.40;;;;;;5030038;28;20977;-72
2023/07/20 03:30:17;;;;;;;5.80;2.73;;;16.70;96.20;;;;;;5027321;28;20455;-72
2023/07/20 03:33:03;;;;;;;4.50;2.60;;;16.70;96.50;;;;;;5024202;28;20415;-72
2023/07/20 03:35:48;;;;;;;6.57;3.37;;;16.70;96.70;;;;;;5018347;28;20444;-72
2023/07/20 03:38:33;;;;;;;4.10;2.30;;;16.70;96.90;;;;;;5025812;28;20985;-72
2023/07/20 03:41:19;;;;;;;12.50;3.23;;;16.60;96.70;;;;;;5019126;28;20457;-72
2023/07/20 03:44:06;;;;;;;5.10;3.13;;;16.40;97.90;;;;;;5027306;28;21037;-72
2023/07/20 03:46:52;;;;;;;6.13;2.87;;;16.30;99.90;;;;;;5027316;28;20455;-72
2023/07/20 03:49:37;;;;;;;7.30;3.03;;;16.20;99.90;;;;;;5025615;28;21272;-72
2023/07/20 03:52:23;;;;;;;4.37;2.50;;;16.10;99.90;;;;;;5022636;28;20543;-72
2023/07/20 03:55:09;;;;;;;7.57;3.20;;;16.10;99.90;;;;;;5024260;28;20418;-72
2023/07/20 03:57:55;;;;;;;4.97;2.60;;;16.10;99.90;;;;;;5019892;28;21093;-72
2023/07/20 04:00:45;;;;;;;4.57;2.57;;;16.10;99.90;;;;;;5025556;28;20519;-72
2023/07/20 04:03:30;;;;;;;4.50;2.53;;;16.20;99.90;;;;;;5024554;28;20441;-72
2023/07/20 04:06:17;;;;;;;5.30;3.13;;;16.20;99.90;;;;;;5022966;28;21105;-72
2023/07/20 04:09:04;;;;;;;8.00;3.47;;;16.30;99.90;;;;;;5020345;28;20505;-72
2023/07/20 04:11:49;;;;;;;6.03;2.73;;;16.50;99.90;;;;;;5019010;28;20436;-72
2023/07/20 04:14:35;;;;;;;5.10;2.93;;;16.60;99.90;;;;;;5022396;28;20690;-72
2023/07/20 04:17:22;;;;;;;6.00;3.87;;;16.70;99.90;;;;;;5029988;28;20464;-72
2023/07/20 04:20:09;;;;;;;5.83;3.10;;;16.80;99.90;;;;;;5020760;28;20559;-72
2023/07/20 04:22:54;;;;;;;5.77;2.67;;;16.80;99.90;;;;;;5020994;28;20960;-72
2023/07/20 04:25:40;;;;;;;8.80;3.43;;;16.80;99.90;;;;;;5012137;28;21072;-72
2023/07/20 04:28:26;;;;;;;9.50;4.30;;;16.80;99.90;;;;;;5025836;28;20447;-72
2023/07/20 04:31:13;;;;;;;6.70;3.00;;;16.80;99.90;;;;;;5021975;28;20470;-72
2023/07/20 04:33:59;;;;;;;8.37;3.23;;;16.80;99.90;;;;;;5024607;28;20450;-72
2023/07/20 04:36:45;;;;;;;10.60;3.20;;;16.80;99.90;;;;;;5019638;28;21020;-72
2023/07/20 04:39:30;;;;;;;7.57;2.90;;;16.70;99.90;;;;;;5019652;28;20465;-72
2023/07/20 04:42:16;;;;;;;6.10;2.87;;;16.60;99.90;;;;;;5024917;28;20435;-72
2023/07/20 04:45:01;;;;;;;4.43;2.57;;;16.60;99.90;;;;;;5021833;28;20413;-72
2023/07/20 04:47:47;;;;;;;5.27;3.00;;;16.70;99.90;;;;;;5022153;28;20498;-72
2023/07/20 04:50:33;;;;;;;4.60;2.53;;;16.90;99.90;;;;;;5018375;28;20499;-72
2023/07/20 04:53:19;;;;;;;9.10;3.20;;;17.00;99.90;;;;;;5028199;28;20739;-72
2023/07/20 04:56:04;;;;;;;4.57;2.90;;;17.30;99.90;;;;;;5026028;28;20807;-72
2023/07/20 04:58:50;;;;;;;4.30;3.07;;;17.50;99.90;;;;;;5022782;28;20502;-72
2023/07/20 05:01:35;;;;;;;8.70;2.80;;;17.60;99.90;;;;;;5020582;28;20546;-72
2023/07/20 05:04:21;;;;;;;4.57;2.40;;;17.70;99.90;;;;;;5025748;28;20465;-72
2023/07/20 05:07:08;;;;;;;4.60;2.70;;;17.90;99.90;;;;;;5026454;28;20465;-72
2023/07/20 05:09:53;;;;;;;4.00;2.43;;;18.00;99.90;;;;;;5022205;28;20841;-73
2023/07/20 05:12:39;;;;;;;7.47;3.00;;;18.20;99.90;;;;;;5025781;28;20444;-72
2023/07/20 05:15:24;;;;;;;4.70;2.27;;;18.40;99.90;;;;;;5030029;28;20483;-72
2023/07/20 05:18:10;;;;;;;7.43;2.87;;;18.60;99.90;;;;;;5026473;28;20530;-72
2023/07/20 05:20:56;;;;;;;5.83;2.80;;;18.60;99.90;;;;;;5024302;28;20496;-72
2023/07/20 05:23:44;;;;;;;4.07;2.40;;;18.70;99.90;;;;;;5026359;28;20422;-72
2023/07/20 05:26:29;;;;;;;11.20;3.50;;;18.80;99.90;;;;;;5019591;28;20464;-72
2023/07/20 05:29:15;;;;;;;4.93;2.60;;;18.80;99.90;;;;;;5024600;28;20497;-72
2023/07/20 05:32:01;;;;;;;4.23;2.70;;;18.90;96.70;;;;;;5026889;28;20452;-72
2023/07/20 05:34:46;;;;;;;5.37;3.10;;;19.00;93.40;;;;;;5019823;28;20580;-72
2023/07/20 05:37:32;;;;;;;11.77;3.10;;;19.10;94.20;;;;;;5026162;28;20493;-72
2023/07/20 05:40:20;;;;;;;8.50;2.73;;;19.10;93.10;;;;;;5030695;28;20460;-72
2023/07/20 05:43:06;;;;;;;4.63;2.70;;;19.20;92.60;;;;;;5033142;28;20419;-72
2023/07/20 05:45:51;;;;;;;5.50;2.80;;;19.40;91.00;;;;;;5022104;28;20532;-72
2023/07/20 05:48:37;;;;;;;7.73;2.87;;;19.40;86.30;;;;;;5029142;28;20463;-72
2023/07/20 05:51:22;;;;;;;9.50;2.47;;;19.50;87.30;;;;;;5024674;28;20419;-72
2023/07/20 05:54:08;;;;;;;5.03;2.53;;;19.60;86.60;;;;;;5022513;28;20454;-72
2023/07/20 05:56:54;;;;;;;6.63;2.73;;;19.70;88.20;;;;;;5027693;28;20930;-72
2023/07/20 05:59:43;;;;;;;4.50;2.90;;;19.80;86.10;;;;;;5025355;28;20427;-72
2023/07/20 06:02:29;;;;;;;7.37;2.87;;;19.80;83.70;;;;;;5024913;28;20445;-72
2023/07/20 06:05:15;;;;;;;5.60;2.33;;;19.90;83.80;;;;;;5028321;28;20570;-72
2023/07/20 06:08:01;;;;;;;7.13;2.53;;;19.90;81.20;;;;;;5027268;28;20508;-72
2023/07/20 06:10:51;;;;;;;10.23;3.20;;;20.00;81.70;;;;;;5025172;28;20441;-72
2023/07/20 06:13:38;;;;;;;6.80;2.77;;;20.20;79.90;;;;;;5026799;28;20560;-72
2023/07/20 06:16:24;;;;;;;8.60;2.80;;;20.30;78.40;;;;;;5024449;28;21147;-72
2023/07/20 06:19:11;;;;;;;8.67;2.90;;;20.30;77.90;;;;;;5026045;28;20445;-72
2023/07/20 06:21:56;;;;;;;5.87;3.23;;;20.30;79.00;;;;;;5018421;28;20457;-72
2023/07/20 06:24:42;;;;;;;5.60;3.10;;;20.30;75.30;;;;;;5023018;28;20600;-72
2023/07/20 06:27:27;;;;;;;7.50;2.90;;;20.40;72.80;;;;;;5023096;28;20436;-72
2023/07/20 06:30:14;;;;;;;5.53;2.90;;;20.20;72.60;;;;;;5023546;28;20464;-72
2023/07/20 06:32:59;;;;;;;6.80;3.00;;;20.20;74.10;;;;;;5029268;28;20623;-73
2023/07/20 06:35:45;;;;;;;4.40;2.70;;;20.20;73.00;;;;;;5023248;28;20450;-72
2023/07/20 06:38:30;;;;;;;6.97;3.33;;;20.20;72.90;;;;;;5023465;28;20467;-72
2023/07/20 06:41:16;;;;;;;15.43;3.10;;;20.20;71.10;;;;;;5021668;28;20453;-72
2023/07/20 06:44:02;;;;;;;4.90;3.07;;;20.30;71.10;;;;;;5027395;28;20537;-72
2023/07/20 06:46:48;;;;;;;5.70;2.80;;;20.40;69.60;;;;;;5022028;28;20844;-72
2023/07/20 06:49:34;;;;;;;9.60;3.40;;;20.40;68.00;;;;;;5021900;28;21082;-72
2023/07/20 06:52:19;;;;;;;6.37;3.33;;;20.60;70.80;;;;;;5023570;28;20453;-72
2023/07/20 06:55:06;;;;;;;8.47;3.27;;;20.70;68.20;;;;;;5018864;28;20449;-72
2023/07/20 06:57:52;;;;;;;4.60;3.50;;;20.70;69.00;;;;;;5017368;28;20458;-72
2023/07/20 07:00:38;;;;;;;6.80;3.27;;;20.60;66.20;;;;;;5020739;28;20572;-72
2023/07/20 07:03:24;;;;;;;5.50;2.97;;;20.50;67.80;;;;;;5024412;28;20493;-72
2023/07/20 07:06:10;;;;;;;5.93;2.77;;;20.60;67.50;;;;;;5022367;28;20868;-72
2023/07/20 07:08:55;;;;;;;8.37;3.50;;;20.70;69.60;;;;;;5022997;28;20700;-73
2023/07/20 07:11:41;;;;;;;5.50;2.83;;;20.80;66.30;;;;;;5023938;28;20495;-73
2023/07/20 07:14:26;;;;;;;9.43;3.33;;;20.90;67.70;;;;;;5022461;28;20448;-73
2023/07/20 07:17:12;;;;;;;7.80;3.10;;;21.00;65.90;;;;;;5022708;28;20455;-73
2023/07/20 07:19:59;;;;;;;8.53;3.27;;;21.10;66.00;;;;;;5021172;28;20452;-73
2023/07/20 07:22:45;;;;;;;5.80;2.53;;;21.10;63.50;;;;;;5025038;28;20444;-73
2023/07/20 07:25:32;;;;;;;9.17;3.37;;;21.00;64.40;;;;;;5016784;28;20970;-73
2023/07/20 07:28:17;;;;;;;7.77;3.00;;;20.90;63.20;;;;;;5016720;28;20457;-72
2023/07/20 07:31:05;;;;;;;8.23;2.90;;;21.00;65.10;;;;;;5022391;28;20437;-72
2023/07/20 07:33:50;;;;;;;4.80;3.30;;;21.00;64.00;;;;;;5025837;28;20445;-73
2023/07/20 07:36:37;;;;;;;9.10;3.20;;;20.90;60.70;;;;;;5025732;28;20551;-73
2023/07/20 07:39:24;;;;;;;6.43;3.10;;;21.00;63.30;;;;;;5028589;28;20824;-72
2023/07/20 07:42:09;;;;;;;5.20;3.40;;;21.10;63.30;;;;;;5019284;28;20453;-73
2023/07/20 07:44:55;;;;;;;8.67;3.20;;;21.20;61.90;;;;;;5021981;28;20872;-73
2023/07/20 07:47:40;;;;;;;6.80;2.53;;;21.30;59.80;;;;;;5020378;28;20473;-73
2023/07/20 07:50:27;;;;;;;8.77;2.83;;;21.50;60.50;;;;;;5023367;28;20476;-73
2023/07/20 07:53:14;;;;;;;4.83;2.43;;;21.60;60.70;;;;;;5022800;28;20560;-72
2023/07/20 07:56:00;;;;;;;4.03;2.70;;;21.90;58.80;;;;;;5020689;28;20448;-73
2023/07/20 07:58:45;;;;;;;4.50;2.93;;;21.80;58.50;;;;;;5022785;28;20461;-73
2023/07/20 08:01:31;;;;;;;7.63;3.10;;;21.40;55.60;;;;;;5021706;28;20551;-73
2023/07/20 08:04:16;;;;;;;8.27;3.47;;;21.30;55.60;;;;;;5025508;28;20882;-72
2023/07/20 08:07:04;;;;;;;9.70;3.57;;;21.20;59.00;;;;;;5028390;28;20866;-73
2023/07/20 08:09:51;;;;;;;8.50;3.60;;;21.30;59.60;;;;;;5021368;28;20481;-73
2023/07/20 08:12:36;;;;;;;7.87;3.00;;;21.50;58.00;;;;;;5025729;28;20535;-73
2023/07/20 08:15:22;;;;;;;4.80;2.67;;;21.50;56.20;;;;;;5026027;28;20511;-73
2023/07/20 08:18:08;;;;;;;7.70;2.83;;;21.20;57.20;;;;;;5027470;28;20461;-73
2023/07/20 08:20:53;;;;;;;6.40;2.90;;;21.10;58.40;;;;;;5018452;28;20925;-73
2023/07/20 08:23:39;;;;;;;6.30;2.23;;;21.10;57.60;;;;;;5017531;28;20445;-73
2023/07/20 08:26:26;;;;;;;6.97;2.80;;;21.20;58.30;;;;;;5019950;28;20830;-72
2023/07/20 08:29:11;;;;;;;5.60;2.70;;;21.30;58.80;;;;;;5023899;28;20539;-72
2023/07/20 08:31:56;;;;;;;5.20;2.47;;;21.60;56.80;;;;;;5022456;28;20452;-73
2023/07/20 08:34:43;;;;;;;7.70;2.83;;;21.60;54.10;;;;;;5024858;28;20525;-73
2023/07/20 08:37:28;;;;;;;4.60;2.23;;;21.50;55.00;;;;;;5023736;28;20461;-72
2023/07/20 08:40:15;;;;;;;4.53;2.20;;;21.60;55.00;;;;;;5029543;28;20437;-72
2023/07/20 08:43:01;;;;;;;8.23;2.00;;;21.80;55.20;;;;;;5026137;28;20576;-73
2023/07/20 08:45:49;;;;;;;5.70;2.60;;;21.80;52.30;;;;;;5018003;28;20978;-72
2023/07/20 08:48:34;;;;;;;8.03;2.40;;;21.60;50.20;;;;;;5038860;22;20509;-72
2023/07/20 08:51:21;;;;;;;3.23;1.87;;;21.50;47.00;;;;;;5030116;28;20961;-71
2023/07/20 08:54:10;;;;;;;5.30;2.23;;;21.50;47.60;;;;;;5028637;28;20809;-71
2023/07/20 08:56:57;;;;;;;4.40;2.20;;;21.40;45.60;;;;;;5026851;28;20479;-71
2023/07/20 08:59:45;;;;;;;6.27;2.67;;;21.50;46.20;;;;;;5028771;28;20514;-71
2023/07/20 09:02:32;;;;;;;7.40;2.80;;;21.60;48.20;;;;;;5023013;28;20448;-71
2023/07/20 09:05:18;;;;;;;3.40;2.00;;;21.50;47.20;;;;;;5020547;28;20543;-71
2023/07/20 09:08:05;;;;;;;4.53;2.10;;;21.70;49.10;;;;;;5022683;28;20472;-71
2023/07/20 09:10:50;;;;;;;5.03;1.90;;;21.80;47.10;;;;;;5014868;28;20564;-71
2023/07/20 09:13:36;;;;;;;3.97;2.10;;;21.70;46.80;;;;;;5021741;28;20794;-71
2023/07/20 09:16:23;;;;;;;4.53;2.40;;;21.90;49.60;;;;;;5023448;28;21153;-71
2023/07/20 09:19:08;;;;;;;3.60;2.20;;;22.10;46.30;;;;;;5024496;28;20488;-71
2023/07/20 09:21:54;;;;;;;11.77;2.10;;;22.10;43.40;;;;;;5024206;28;20520;-71
2023/07/20 09:24:41;;;;;;;3.57;2.07;;;22.00;44.20;;;;;;5020639;28;20447;-71
2023/07/20 09:27:36;;;;;;;3.63;1.63;;;22.10;42.90;;;;;;5026122;28;20813;-71
2023/07/20 09:30:26;;;;;;;2.87;1.50;;;22.20;42.80;;;;;;5025859;28;20477;-71
2023/07/20 09:33:22;;;;;;;4.10;2.00;;;22.40;34.50;;;;;;5021433;28;20436;-71
2023/07/20 09:36:11;;;;;;;5.57;2.03;;;22.40;34.90;;;;;;5015751;28;20444;-71
2023/07/20 09:38:56;;;;;;;3.63;2.20;;;22.30;37.40;;;;;;5023180;28;20467;-71
2023/07/20 09:41:43;;;;;;;3.53;1.60;;;22.40;36.90;;;;;;5020081;28;20444;-73
2023/07/20 09:44:29;;;;;;;6.67;2.30;;;22.60;35.10;;;;;;5027561;28;20612;-71
2023/07/20 09:47:22;;;;;;;3.93;1.67;;;22.70;34.50;;;;;;5029214;28;20571;-72
2023/07/20 09:50:12;;;;;;;5.00;1.73;;;22.90;35.00;;;;;;5023954;28;20476;-71
2023/07/20 09:52:57;;;;;;;4.23;2.20;;;23.10;33.00;;;;;;5025372;28;20479;-71
2023/07/20 09:55:44;;;;;;;4.03;1.90;;;23.10;30.40;;;;;;5022523;28;20804;-72
2023/07/20 09:58:32;;;;;;;5.60;2.27;;;23.00;30.90;;;;;;5021277;28;20468;-72
2023/07/20 10:01:21;;;;;;;6.40;2.57;;;22.90;31.90;;;;;;5019215;28;20929;-72
2023/07/20 10:04:09;;;;;;;6.30;1.70;;;22.80;33.50;;;;;;5025737;28;20464;-72
2023/07/20 10:06:59;;;;;;;5.80;2.20;;;22.70;33.80;;;;;;5025241;28;20428;-71
2023/07/20 10:09:46;;;;;;;6.87;2.13;;;22.80;33.50;;;;;;5022485;28;20584;-68
2023/07/20 10:12:32;;;;;;;4.80;2.00;;;22.90;31.90;;;;;;5020899;28;20448;-68
2023/07/20 10:15:22;;;;;;;4.30;1.90;;;23.30;32.00;;;;;;5026719;28;20918;-69
2023/07/20 10:18:13;;;;;;;4.30;2.07;;;23.50;30.00;;;;;;5027040;28;20500;-69
2023/07/20 10:21:01;;;;;;;2.77;1.87;;;23.70;31.40;;;;;;5026620;28;20963;-69
2023/07/20 10:23:48;;;;;;;7.77;1.97;;;23.50;26.90;;;;;;5026435;28;20428;-68
2023/07/20 10:26:34;;;;;;;4.37;2.20;;;23.20;29.60;;;;;;5025486;28;20807;-69
2023/07/20 10:29:20;;;;;;;3.50;2.03;;;23.00;30.80;;;;;;5023237;28;20577;-66
2023/07/20 10:32:07;;;;;;;3.60;2.23;;;23.10;31.60;;;;;;5028815;28;20834;-66
2023/07/20 10:34:53;;;;;;;3.10;1.90;;;23.20;31.70;;;;;;5031465;28;20958;-66
2023/07/20 10:37:52;;;;;;;7.00;2.33;;;23.50;28.30;;;;;;5028565;28;20446;-66
2023/07/20 10:40:40;;;;;;;6.60;2.00;;;23.40;27.40;;;;;;5022249;28;20970;-66
2023/07/20 10:43:26;;;;;;;8.00;2.47;;;23.40;26.30;;;;;;5029375;28;20444;-66
2023/07/20 10:46:13;;;;;;;3.00;1.80;;;23.30;29.10;;;;;;5025121;28;20523;-67
2023/07/20 10:49:02;;;;;;;3.50;1.97;;;23.30;28.60;;;;;;5027051;28;20481;-67
2023/07/20 10:51:50;;;;;;;4.00;2.00;;;23.20;29.40;;;;;;5031003;28;20476;-67
2023/07/20 10:54:47;;;;;;;8.97;2.00;;;23.30;27.40;;;;;;5028473;28;20443;-67
2023/07/20 10:57:34;;;;;;;7.10;2.50;;;23.60;29.40;;;;;;5026111;28;20513;-67
2023/07/20 11:00:22;;;;;;;3.93;2.00;;;23.80;29.50;;;;;;5022662;28;20815;-67
2023/07/20 11:03:07;;;;;;;3.90;1.80;;;23.80;27.40;;;;;;5028048;28;20450;-67
2023/07/20 11:05:53;;;;;;;2.47;1.53;;;23.60;25.40;;;;;;5025872;28;20499;-68
2023/07/20 11:08:42;;;;;;;13.37;2.10;;;23.60;26.00;;;;;;5023741;28;20560;-68
2023/07/20 11:11:28;;;;;;;4.03;1.60;;;23.70;27.80;;;;;;5024494;28;20508;-67
2023/07/20 11:14:24;;;;;;;2.60;1.70;;;23.90;25.00;;;;;;5030625;28;20449;-68
2023/07/20 11:17:13;;;;;;;4.97;2.27;;;24.10;27.00;;;;;;5040251;28;20673;-67
2023/07/20 11:20:00;;;;;;;4.77;1.90;;;24.00;25.20;;;;;;5028914;28;20454;-68
2023/07/20 11:22:47;;;;;;;4.87;1.77;;;23.70;24.40;;;;;;5024246;28;20440;-68
2023/07/20 11:25:38;;;;;;;5.03;2.23;;;23.70;25.70;;;;;;5021324;28;20453;-68
2023/07/20 11:28:23;;;;;;;3.90;1.70;;;23.70;27.40;;;;;;5026616;28;20483;-67
2023/07/20 11:31:10;;;;;;;2.87;1.70;;;23.90;25.50;;;;;;5034927;28;20520;-68
2023/07/20 11:33:56;;;;;;;3.23;1.80;;;24.10;25.80;;;;;;5033451;28;20449;-68
2023/07/20 11:36:43;;;;;;;4.07;1.83;;;24.30;24.60;;;;;;5030405;28;20475;-67
2023/07/20 11:39:30;;;;;;;4.47;2.00;;;24.50;23.50;;;;;;5028173;28;20962;-68
2023/07/20 11:42:16;;;;;;;3.70;2.10;;;24.50;22.70;;;;;;5039885;28;20968;-68
2023/07/20 11:45:04;;;;;;;6.40;2.00;;;24.70;23.60;;;;;;5031825;28;20458;-68
2023/07/20 11:47:51;;;;;;;3.63;2.03;;;24.60;22.00;;;;;;5031866;28;20853;-68
2023/07/20 11:50:40;;;;;;;5.43;1.70;;;24.80;22.50;;;;;;5032664;28;20553;-68
2023/07/20 11:53:26;;;;;;;3.83;1.97;;;24.70;21.50;;;;;;5032611;28;20428;-68
2023/07/20 11:56:12;;;;;;;11.07;2.47;;;24.70;23.60;;;;;;5023432;28;20445;-68
2023/07/20 11:58:59;;;;;;;4.50;1.90;;;24.50;20.90;;;;;;5030312;28;20550;-68
2023/07/20 12:01:46;;;;;;;3.73;1.70;;;24.40;23.50;;;;;;5021006;28;20440;-68
2023/07/20 12:04:34;;;;;;;4.67;1.73;;;24.30;24.20;;;;;;5027935;28;20451;-68
2023/07/20 12:07:19;;;;;;;5.70;2.03;;;24.30;23.40;;;;;;5022636;28;20473;-68
2023/07/20 12:10:07;;;;;;;6.17;2.37;;;24.10;22.50;;;;;;5022558;28;20445;-68
2023/07/20 12:12:53;;;;;;;4.53;1.90;;;24.10;23.20;;;;;;5013839;28;20528;-70
2023/07/20 12:15:38;;;;;;;10.30;2.30;;;24.20;23.30;;;;;;5019183;28;20961;-67
2023/07/20 12:18:25;;;;;;;3.57;1.80;;;24.30;20.50;;;;;;5025383;28;20844;-67
2023/07/20 12:21:12;;;;;;;6.60;1.97;;;24.50;21.40;;;;;;5019946;28;20459;-67
2023/07/20 12:23:58;;;;;;;2.57;1.23;;;24.60;23.90;;;;;;5030494;28;20854;-67
2023/07/20 12:26:43;;;;;;;4.27;1.43;;;24.80;21.70;;;;;;5023493;28;20448;-67
2023/07/20 12:29:29;;;;;;;2.53;1.47;;;25.00;21.10;;;;;;5031614;28;20818;-67
2023/07/20 12:32:14;;;;;;;3.97;1.83;;;25.10;16.00;;;;;;5036450;28;20484;-67
2023/07/20 12:35:00;;;;;;;2.30;1.10;;;25.00;15.50;;;;;;5019548;28;20465;-68
2023/07/20 12:37:48;;;;;;;2.53;1.30;;;25.00;18.50;;;;;;5021689;28;20460;-68
2023/07/20 12:40:36;;;;;;;4.33;1.50;;;25.00;17.40;;;;;;5015367;28;20454;-67
2023/07/20 12:43:22;;;;;;;4.60;1.90;;;24.80;15.90;;;;;;5025202;28;20453;-67
2023/07/20 12:46:08;;;;;;;3.70;1.63;;;24.70;17.70;;;;;;5024800;28;20487;-67
2023/07/20 12:48:53;;;;;;;2.40;1.30;;;24.60;17.50;;;;;;5018243;28;20563;-68
2023/07/20 12:51:38;;;;;;;4.10;1.80;;;24.60;18.70;;;;;;5017443;28;20472;-68
2023/07/20 12:54:25;;;;;;;4.40;1.90;;;24.80;18.70;;;;;;5023503;28;20812;-68
2023/07/20 12:57:11;;;;;;;3.27;1.70;;;24.70;15.90;;;;;;5024903;28;20997;-68
2023/07/20 12:59:56;;;;;;;3.80;1.60;;;24.80;17.10;;;;;;5014776;28;20491;-68
2023/07/20 13:02:43;;;;;;;4.13;1.47;;;25.10;16.30;;;;;;5023315;28;20506;-68
2023/07/20 13:05:28;;;;;;;2.70;1.60;;;25.50;15.40;;;;;;5014308;28;20579;-68
2023/07/20 13:08:13;;;;;;;7.33;1.70;;;25.70;15.80;;;;;;5019180;28;20531;-68
2023/07/20 13:11:01;;;;;;;4.90;1.63;;;26.10;15.10;;;;;;5011624;28;20487;-68
2023/07/20 13:13:46;;;;;;;4.57;2.23;;;26.30;14.90;;;;;;5017781;28;20469;-69
2023/07/20 13:16:32;;;;;;;3.07;1.43;;;26.50;13.50;;;;;;5018495;28;20465;-69
2023/07/20 13:19:17;;;;;;;4.23;1.80;;;26.60;15.20;;;;;;5021673;28;20471;-69
2023/07/20 13:22:03;;;;;;;5.00;1.80;;;26.70;14.00;;;;;;5019212;28;20441;-69
2023/07/20 13:24:50;;;;;;;4.83;1.30;;;26.70;14.30;;;;;;5014899;28;20511;-69
2023/07/20 13:27:37;;;;;;;2.53;1.33;;;26.50;13.10;;;;;;5027856;28;20474;-69
2023/07/20 13:30:23;;;;;;;4.03;2.00;;;26.40;13.00;;;;;;5016907;28;20519;-69
2023/07/20 13:33:08;;;;;;;3.90;2.27;;;26.50;14.30;;;;;;5027962;28;20452;-69
2023/07/20 13:35:54;;;;;;;5.07;1.77;;;26.30;12.50;;;;;;5022710;28;20444;-69
2023/07/20 13:38:40;;;;;;;4.63;1.30;;;25.90;13.60;;;;;;5024866;28;20481;-69
2023/07/20 13:41:25;;;;;;;3.53;1.80;;;25.60;14.40;;;;;;5021476;28;20941;-69
2023/07/20 13:44:11;;;;;;;4.13;1.80;;;25.30;14.70;;;;;;5021550;28;20556;-69
2023/07/20 13:46:57;;;;;;;8.60;1.53;;;25.20;15.40;;;;;;5022204;28;20559;-69
2023/07/20 13:49:43;;;;;;;3.23;2.10;;;25.10;15.90;;;;;;5025409;28;20584;-68
2023/07/20 13:52:28;;;;;;;6.20;1.67;;;25.10;18.00;;;;;;5028586;28;20477;-68
2023/07/20 13:55:14;;;;;;;3.10;1.50;;;25.10;17.90;;;;;;5027536;28;20441;-69
2023/07/20 13:57:59;;;;;;;3.90;1.83;;;25.00;16.70;;;;;;5023565;28;20468;-69
2023/07/20 14:00:46;;;;;;;5.80;1.50;;;24.90;17.50;;;;;;5024379;28;21130;-69
2023/07/20 14:03:32;;;;;;;2.90;1.50;;;24.90;17.60;;;;;;5027131;28;20823;-69
2023/07/20 14:06:17;;;;;;;3.30;2.03;;;25.10;18.30;;;;;;5022570;28;20447;-68
2023/07/20 14:09:04;;;;;;;4.47;1.70;;;25.30;16.20;;;;;;5026013;28;20473;-69
2023/07/20 14:11:49;;;;;;;8.43;1.90;;;25.30;15.70;;;;;;5013855;28;20983;-69
2023/07/20 14:14:35;;;;;;;5.27;1.80;;;25.10;16.10;;;;;;5019233;28;20503;-69
2023/07/20 14:17:22;;;;;;;4.23;1.70;;;24.80;16.00;;;;;;5020004;28;20826;-69
2023/07/20 14:20:08;;;;;;;6.50;2.10;;;24.70;18.80;;;;;;5021308;28;20822;-69
2023/07/20 14:22:53;;;;;;;4.57;2.00;;;24.60;18.70;;;;;;5021461;28;20571;-69
2023/07/20 14:25:40;;;;;;;4.23;1.60;;;24.60;18.70;;;;;;5012977;28;20463;-69